Havre City County Airport
KHVR : now visible

Airfield :











YOU CAN JOIN US ON...

 
LOGIN :

Register | Disclaimer

   EN    FR    IT 

 









Legend :    VFR   Marginal VFR   IFR   Intensive IFR   Very Intensive IFR
Visi :
Ceiling :
>= 8 km
>= 3000ft
5 to 8 km
1000 to 3000 ft
1500m to 5 km
500 to 1000 ft
800 to 1500m
200 to 500 ft
< 800m
< 200 ft
Symbols :   Thunderstorms  Fog  Heavy snow  Heavy precipitations  Wind > 20 kt






- Airport Elevation : 2591 ft


KHVR - Havre City County

CURRENT METAR :
  • 030053Z AUTO 09009KT 10SM SCT090 M09/M18 A3025 RMK AO2 SLP306 T10941178

EXPIRED METARs :
  • 022353Z AUTO 09010KT 10SM BKN095 M09/M17 A3025 RMK AO2 SLPNO T10941172 11083 21111 56007
  • 022253Z AUTO 09010KT 10SM SCT100 M09/M17 A3026 RMK AO2 SLPNO T10941172

TAF KHVR
Valid from the 03 at 00:00 until the 04 at 00:00 UTC


022327Z 0300/0324 VRB06KT P6SM FEW090 SCT150
FM030300 06010KT P6SM SCT060 BKN100
FM031400 VRB06KT P6SM FEW060 SCT100
FM031800 16012KT P6SM FEW150 SCT250



MET'MAP, your aeronautical weather chart ! - Copyright ORBIFLY December 2007 - Disclaimer

ORBIFLY MET'MAP TEAM :

Programming & Development : Alexandra Zaïnal
Concept & original design : Baudouin d'Aumeries
Assistance for programming : Marc-Olivier Méhu
Technical & hardware support : Manuel Goepfert

Contact : metmap@orbifly.com




SOURCES & CREDITS :

   NOAA       Earth
Advisory